createdAt,value
2022-09-15T00:00:31.338Z,16.40
2022-09-15T00:02:58.585Z,16.30
2022-09-15T00:05:25.505Z,16.50
2022-09-15T00:07:52.368Z,16.60
2022-09-15T00:10:19.350Z,16.50
2022-09-15T00:12:46.225Z,16.30
2022-09-15T00:15:14.902Z,16.30
2022-09-15T00:17:43.342Z,16.20
2022-09-15T00:20:11.243Z,16.20
2022-09-15T00:22:38.399Z,16.30
2022-09-15T00:25:06.239Z,16.30
2022-09-15T00:27:33.981Z,16.30
2022-09-15T00:30:01.197Z,16.40
2022-09-15T00:32:29.732Z,16.50
2022-09-15T00:34:56.672Z,16.40
2022-09-15T00:37:25.117Z,16.30
2022-09-15T00:39:53.240Z,16.40
2022-09-15T00:42:22.630Z,16.40
2022-09-15T00:44:53.884Z,16.40
2022-09-15T00:47:25.427Z,16.30
2022-09-15T00:49:59.417Z,16.30
2022-09-15T00:52:36.215Z,16.20
2022-09-15T00:55:30.643Z,16.10
2022-09-15T00:58:18.127Z,16.00
2022-09-15T01:00:55.629Z,16.00
2022-09-15T01:03:24.796Z,16.00
2022-09-15T01:05:55.175Z,16.10
2022-09-15T01:08:44.284Z,16.10
2022-09-15T01:11:11.605Z,16.00
2022-09-15T01:13:38.412Z,16.10
2022-09-15T01:19:00.665Z,15.90
2022-09-15T01:21:49.011Z,16.10
2022-09-15T01:24:15.798Z,16.10
2022-09-15T01:27:24.107Z,16.00
2022-09-15T01:30:06.401Z,15.90
2022-09-15T01:33:04.284Z,16.10
2022-09-15T01:35:56.382Z,16.10
2022-09-15T01:38:41.542Z,16.10
2022-09-15T01:41:37.864Z,16.00
2022-09-15T01:44:15.303Z,16.10
2022-09-15T01:46:48.669Z,15.90
2022-09-15T01:49:23.202Z,15.90
2022-09-15T01:51:52.814Z,15.90
2022-09-15T01:54:33.972Z,16.00
2022-09-15T01:57:02.376Z,16.00
2022-09-15T01:59:29.304Z,16.20
2022-09-15T02:02:05.826Z,16.20
2022-09-15T02:04:47.354Z,16.20
2022-09-15T02:07:45.192Z,15.90
2022-09-15T02:10:19.839Z,15.80
2022-09-15T02:12:53.592Z,15.80
2022-09-15T02:15:36.811Z,15.70
2022-09-15T02:18:08.548Z,15.80
2022-09-15T02:20:50.063Z,15.90
2022-09-15T02:23:30.133Z,15.80
2022-09-15T02:26:05.017Z,15.70
2022-09-15T02:28:35.850Z,15.70
2022-09-15T02:31:06.695Z,15.70
2022-09-15T02:33:38.724Z,15.70
2022-09-15T02:36:07.032Z,15.80
2022-09-15T02:38:39.446Z,15.90
2022-09-15T02:41:06.422Z,15.90
2022-09-15T02:43:34.166Z,16.00
2022-09-15T02:46:01.140Z,15.90
2022-09-15T02:48:28.177Z,17.70
2022-09-15T02:50:55.021Z,16.00
2022-09-15T02:53:21.881Z,16.00
2022-09-15T02:55:49.630Z,15.90
2022-09-15T02:58:16.445Z,15.80
2022-09-15T03:00:44.328Z,15.80
2022-09-15T03:03:11.177Z,15.80
2022-09-15T03:05:38.054Z,15.80
2022-09-15T03:08:05.246Z,15.70
2022-09-15T03:10:33.537Z,15.70
2022-09-15T03:13:00.367Z,15.70
2022-09-15T03:15:27.825Z,15.80
2022-09-15T03:17:55.122Z,15.80
2022-09-15T03:20:30.497Z,15.60
2022-09-15T03:22:57.408Z,15.70
2022-09-15T03:25:26.981Z,15.80
2022-09-15T03:27:54.203Z,15.80
2022-09-15T03:30:21.169Z,15.80
2022-09-15T03:32:48.791Z,15.80
2022-09-15T03:35:15.726Z,15.80
2022-09-15T03:37:42.580Z,15.80
2022-09-15T03:40:10.839Z,15.70
2022-09-15T03:42:37.845Z,15.60
2022-09-15T03:45:05.004Z,15.70
2022-09-15T03:47:33.351Z,15.60
2022-09-15T03:50:00.248Z,15.50
2022-09-15T03:52:31.454Z,15.50
2022-09-15T03:54:58.462Z,15.70
2022-09-15T03:57:25.337Z,15.80
2022-09-15T03:59:52.156Z,15.50
2022-09-15T04:02:19.357Z,15.40
2022-09-15T04:04:46.280Z,15.40
2022-09-15T04:07:13.325Z,15.30
2022-09-15T04:09:40.173Z,15.40
2022-09-15T04:12:07.407Z,15.40
2022-09-15T04:14:34.245Z,15.40
2022-09-15T04:17:01.079Z,15.50
2022-09-15T04:19:28.431Z,15.50
2022-09-15T04:21:55.239Z,15.50
2022-09-15T04:24:22.433Z,15.50
2022-09-15T04:26:49.843Z,15.60
2022-09-15T04:29:17.623Z,15.60
2022-09-15T04:31:44.913Z,15.60
2022-09-15T04:34:12.182Z,15.50
2022-09-15T04:36:39.117Z,15.50
2022-09-15T04:39:06.694Z,15.70
2022-09-15T04:41:33.865Z,15.70
2022-09-15T04:44:01.114Z,15.80
2022-09-15T04:46:28.058Z,15.70
2022-09-15T04:48:56.421Z,15.70
2022-09-15T04:51:24.002Z,15.70
2022-09-15T04:53:51.950Z,15.70
2022-09-15T04:56:22.510Z,15.60
2022-09-15T04:58:58.272Z,15.50
2022-09-15T05:01:34.472Z,15.50
2022-09-15T05:04:05.978Z,15.50
2022-09-15T05:06:34.906Z,15.50
2022-09-15T05:09:07.659Z,15.60
2022-09-15T05:11:36.821Z,15.60
2022-09-15T05:14:03.677Z,15.60
2022-09-15T05:16:31.584Z,15.60
2022-09-15T05:19:01.019Z,15.70
2022-09-15T05:21:29.023Z,15.60
2022-09-15T05:23:55.902Z,15.60
2022-09-15T05:26:28.584Z,15.60
2022-09-15T05:28:56.330Z,15.70
2022-09-15T05:31:34.010Z,15.50
2022-09-15T05:34:03.906Z,15.50
2022-09-15T05:36:31.978Z,15.40
2022-09-15T05:38:59.521Z,15.40
2022-09-15T05:41:28.693Z,15.30
2022-09-15T05:43:57.289Z,15.30
2022-09-15T05:46:26.217Z,15.30
2022-09-15T05:48:56.941Z,15.40
2022-09-15T05:51:24.220Z,15.50
2022-09-15T05:53:51.231Z,15.50
2022-09-15T05:56:18.481Z,15.60
2022-09-15T05:58:47.441Z,15.60
2022-09-15T06:01:27.121Z,15.70
2022-09-15T06:03:55.189Z,15.70
2022-09-15T06:06:22.907Z,15.70
2022-09-15T06:08:57.967Z,15.60
2022-09-15T06:11:28.962Z,15.60
2022-09-15T06:13:55.943Z,15.60
2022-09-15T06:16:24.225Z,15.60
2022-09-15T06:18:53.218Z,15.70
2022-09-15T06:21:26.341Z,15.70
2022-09-15T06:23:54.955Z,15.70
2022-09-15T06:26:22.333Z,15.70
2022-09-15T06:28:54.923Z,15.70
2022-09-15T06:31:22.201Z,15.70
2022-09-15T06:33:54.080Z,15.70
2022-09-15T06:36:23.226Z,15.80
2022-09-15T06:38:50.149Z,15.80
2022-09-15T06:41:17.743Z,15.90
2022-09-15T06:43:45.862Z,15.90
2022-09-15T06:46:15.918Z,15.90
2022-09-15T06:48:46.346Z,15.90
2022-09-15T06:51:17.254Z,16.00
2022-09-15T06:53:44.233Z,16.00
2022-09-15T06:56:20.709Z,15.90
2022-09-15T06:58:51.066Z,16.00
2022-09-15T07:01:29.679Z,16.00
2022-09-15T07:03:58.230Z,16.10
2022-09-15T07:06:28.243Z,16.00
2022-09-15T07:08:55.190Z,15.90
2022-09-15T07:11:22.078Z,16.00
2022-09-15T07:13:49.348Z,16.00
2022-09-15T07:16:17.020Z,16.10
2022-09-15T07:21:14.596Z,16.10
2022-09-15T07:23:42.079Z,16.20
2022-09-15T07:26:14.134Z,16.10
2022-09-15T07:28:43.112Z,16.20
2022-09-15T07:31:12.432Z,16.30
2022-09-15T07:33:39.369Z,16.30
2022-09-15T07:36:08.116Z,16.30
2022-09-15T07:38:38.870Z,16.40
2022-09-15T07:41:07.447Z,16.40
2022-09-15T07:43:34.498Z,16.40
2022-09-15T07:46:02.089Z,16.50
2022-09-15T07:48:30.003Z,16.30
2022-09-15T07:50:57.597Z,16.30
2022-09-15T07:53:24.431Z,16.40
2022-09-15T07:55:54.567Z,16.40
2022-09-15T07:58:22.664Z,16.40
2022-09-15T08:00:49.896Z,16.40
2022-09-15T08:03:17.007Z,16.50
2022-09-15T08:05:45.780Z,16.70
2022-09-15T08:08:13.124Z,16.70
2022-09-15T08:10:41.491Z,16.80
2022-09-15T08:13:08.890Z,17.00
2022-09-15T08:15:37.532Z,16.90
2022-09-15T08:18:05.341Z,17.10
2022-09-15T08:20:32.590Z,17.10
2022-09-15T08:22:59.563Z,17.30
2022-09-15T08:25:26.586Z,17.30
2022-09-15T08:27:54.566Z,17.30
2022-09-15T08:30:22.356Z,17.50
2022-09-15T08:32:49.693Z,17.40
2022-09-15T08:35:17.412Z,17.30
2022-09-15T08:37:44.318Z,17.40
2022-09-15T08:40:19.449Z,17.40
2022-09-15T08:42:50.438Z,17.50
2022-09-15T08:45:24.635Z,17.40
2022-09-15T08:47:58.621Z,17.20
2022-09-15T08:50:47.679Z,17.20
2022-09-15T08:53:25.819Z,17.30
2022-09-15T08:55:54.237Z,17.40
2022-09-15T08:58:29.096Z,17.40
2022-09-15T09:01:16.464Z,17.40
2022-09-15T09:04:18.579Z,17.80
2022-09-15T09:07:00.545Z,17.70
2022-09-15T09:09:52.542Z,17.60
2022-09-15T09:12:25.420Z,17.50
2022-09-15T09:15:24.573Z,17.50
2022-09-15T09:18:26.234Z,17.50
2022-09-15T09:21:14.520Z,17.70
2022-09-15T09:23:52.192Z,17.80
2022-09-15T09:26:19.494Z,18.00
2022-09-15T09:28:57.931Z,18.10
2022-09-15T09:31:27.315Z,18.10
2022-09-15T09:33:58.000Z,18.10
2022-09-15T09:36:25.906Z,18.10
2022-09-15T09:38:52.978Z,18.30
2022-09-15T09:41:25.538Z,18.40
2022-09-15T09:43:55.111Z,18.20
2022-09-15T09:46:22.248Z,18.20
2022-09-15T09:49:01.157Z,18.40
2022-09-15T09:51:52.253Z,18.10
2022-09-15T09:54:21.519Z,18.20
2022-09-15T09:56:50.268Z,18.60
2022-09-15T09:59:41.066Z,18.80
2022-09-15T10:02:15.788Z,18.80
2022-09-15T10:04:46.408Z,18.80
2022-09-15T10:07:15.441Z,18.60
2022-09-15T10:09:58.847Z,18.70
2022-09-15T10:12:39.822Z,18.70
2022-09-15T10:15:20.819Z,18.80
2022-09-15T10:17:49.919Z,19.10
2022-09-15T10:20:25.562Z,19.70
2022-09-15T10:23:01.225Z,19.80
2022-09-15T10:25:44.525Z,19.40
2022-09-15T10:28:23.031Z,19.20
2022-09-15T10:31:06.441Z,18.70
2022-09-15T10:33:35.159Z,18.30
2022-09-15T10:36:15.279Z,18.40
2022-09-15T10:38:48.686Z,18.60
2022-09-15T10:41:29.977Z,19.30
2022-09-15T10:43:56.788Z,20.80
2022-09-15T10:46:45.415Z,21.80
2022-09-15T10:49:27.414Z,22.80
2022-09-15T10:51:54.236Z,21.70
2022-09-15T10:54:40.829Z,21.60
2022-09-15T10:57:37.856Z,22.00
2022-09-15T11:00:08.624Z,22.30
2022-09-15T11:02:56.674Z,22.80
2022-09-15T11:05:39.375Z,23.20
2022-09-15T11:08:25.324Z,23.20
2022-09-15T11:10:59.780Z,23.30
2022-09-15T11:13:30.123Z,22.80
2022-09-15T11:16:15.965Z,22.50
2022-09-15T11:19:04.361Z,22.30
2022-09-15T11:21:46.148Z,21.80
2022-09-15T11:24:40.739Z,22.30
2022-09-15T11:27:42.231Z,22.20
2022-09-15T11:30:16.610Z,21.20
2022-09-15T11:32:43.560Z,21.20
2022-09-15T11:35:34.563Z,20.90
2022-09-15T11:38:28.585Z,20.60
2022-09-15T11:41:23.117Z,20.40
2022-09-15T11:44:01.857Z,21.70
2022-09-15T11:46:38.473Z,22.70
2022-09-15T11:49:16.326Z,22.90
2022-09-15T11:52:12.105Z,22.10
2022-09-15T11:54:48.673Z,21.20
2022-09-15T11:57:25.423Z,21.10
2022-09-15T12:00:12.430Z,20.80
2022-09-15T12:03:17.452Z,20.20
2022-09-15T12:06:14.758Z,19.40
2022-09-15T12:08:50.966Z,19.00
2022-09-15T12:11:22.472Z,18.80
2022-09-15T12:13:50.425Z,18.70
2022-09-15T12:16:18.822Z,19.00
2022-09-15T12:18:54.279Z,19.30
2022-09-15T12:21:40.027Z,19.50
2022-09-15T12:24:38.730Z,19.10
2022-09-15T12:27:05.783Z,18.90
2022-09-15T12:29:51.863Z,18.90
2022-09-15T12:32:29.119Z,18.70
2022-09-15T12:35:13.835Z,18.50
2022-09-15T12:37:45.524Z,18.40
2022-09-15T12:40:33.620Z,18.60
2022-09-15T12:43:10.620Z,18.70
2022-09-15T12:45:38.701Z,18.60
2022-09-15T12:48:16.269Z,18.90
2022-09-15T12:50:52.597Z,18.80
2022-09-15T12:53:20.264Z,18.80
2022-09-15T12:55:58.086Z,19.00
2022-09-15T12:58:37.662Z,19.10
2022-09-15T13:01:24.814Z,19.00
2022-09-15T13:03:53.987Z,19.30
2022-09-15T13:06:22.475Z,19.60
2022-09-15T13:08:52.158Z,19.50
2022-09-15T13:11:29.517Z,19.70
2022-09-15T13:14:08.751Z,19.90
2022-09-15T13:16:43.793Z,20.20
2022-09-15T13:19:24.781Z,19.80
2022-09-15T13:22:06.529Z,19.40
2022-09-15T13:24:59.029Z,19.20
2022-09-15T13:27:47.989Z,19.00
2022-09-15T13:30:36.873Z,18.70
2022-09-15T13:33:12.883Z,18.60
2022-09-15T13:35:49.132Z,18.50
2022-09-15T13:38:34.385Z,18.30
2022-09-15T13:41:23.509Z,18.30
2022-09-15T13:44:19.704Z,18.30
2022-09-15T13:47:02.828Z,18.10
2022-09-15T13:49:44.832Z,18.10
2022-09-15T13:52:31.187Z,18.10
2022-09-15T13:55:12.707Z,18.00
2022-09-15T14:00:45.494Z,17.80
2022-09-15T14:03:17.534Z,17.70
2022-09-15T14:05:45.681Z,17.60
2022-09-15T14:08:22.879Z,17.50
2022-09-15T14:10:52.932Z,17.60
2022-09-15T14:13:22.696Z,17.50
2022-09-15T14:16:19.151Z,17.60
2022-09-15T14:18:47.025Z,17.70
2022-09-15T14:21:20.260Z,17.60
2022-09-15T14:23:49.555Z,17.70
2022-09-15T14:26:19.557Z,17.80
2022-09-15T14:28:57.686Z,17.80
2022-09-15T14:31:42.788Z,17.80
2022-09-15T14:34:19.474Z,17.70
2022-09-15T14:36:47.108Z,17.80
2022-09-15T14:39:22.452Z,18.00
2022-09-15T14:41:50.791Z,18.20
2022-09-15T14:47:28.654Z,18.30
2022-09-15T14:50:15.666Z,18.20
2022-09-15T14:52:44.070Z,18.20
2022-09-15T14:55:32.025Z,18.00
2022-09-15T14:58:13.418Z,17.90
2022-09-15T15:01:13.941Z,17.70
2022-09-15T15:04:01.152Z,17.70
2022-09-15T15:06:45.209Z,17.60
2022-09-15T15:09:33.445Z,17.60
2022-09-15T15:12:06.244Z,17.60
2022-09-15T15:14:34.711Z,17.50
2022-09-15T15:17:08.251Z,17.40
2022-09-15T15:19:42.133Z,17.40
2022-09-15T15:22:15.529Z,17.30
2022-09-15T15:24:45.843Z,17.30
2022-09-15T15:27:34.820Z,17.20
2022-09-15T15:30:32.321Z,17.20
2022-09-15T15:33:05.593Z,17.10
2022-09-15T15:35:33.713Z,17.10
2022-09-15T15:38:25.382Z,17.10
2022-09-15T15:41:04.930Z,17.10
2022-09-15T15:46:04.938Z,17.20
2022-09-15T15:48:37.826Z,17.20
2022-09-15T15:51:06.721Z,17.10
2022-09-15T15:53:34.491Z,17.00
2022-09-15T15:56:01.512Z,17.00
2022-09-15T15:58:28.421Z,17.00
2022-09-15T16:00:56.862Z,17.00
2022-09-15T16:03:24.866Z,16.90
2022-09-15T16:05:54.283Z,16.90
2022-09-15T16:08:28.083Z,17.00
2022-09-15T16:10:55.592Z,16.90
2022-09-15T16:13:24.702Z,16.90
2022-09-15T16:15:54.047Z,17.00
2022-09-15T16:18:21.510Z,16.90
2022-09-15T16:20:48.497Z,16.80
2022-09-15T16:23:18.124Z,16.80
2022-09-15T16:25:48.468Z,16.80
2022-09-15T16:28:15.566Z,16.80
2022-09-15T16:30:42.480Z,16.80
2022-09-15T16:33:16.184Z,16.80
2022-09-15T16:35:43.873Z,16.70
2022-09-15T16:38:10.786Z,16.70
2022-09-15T16:40:37.764Z,16.60
2022-09-15T16:43:09.249Z,16.60
2022-09-15T16:45:40.605Z,16.70
2022-09-15T16:48:08.679Z,16.70
2022-09-15T16:50:37.775Z,16.60
2022-09-15T16:53:09.323Z,16.60
2022-09-15T16:55:40.461Z,16.50
2022-09-15T16:58:07.607Z,16.60
2022-09-15T17:00:37.988Z,16.60
2022-09-15T17:03:06.301Z,16.50
2022-09-15T17:05:48.529Z,16.40
2022-09-15T17:08:17.081Z,16.50
2022-09-15T17:10:44.555Z,16.40
2022-09-15T17:13:17.857Z,16.40
2022-09-15T17:15:46.073Z,16.50
2022-09-15T17:18:15.391Z,16.30
2022-09-15T17:20:43.799Z,16.40
2022-09-15T17:23:25.574Z,16.30
2022-09-15T17:25:57.452Z,16.30
2022-09-15T17:28:27.197Z,16.30
2022-09-15T17:30:59.165Z,16.30
2022-09-15T17:33:27.081Z,16.30
2022-09-15T17:35:54.092Z,16.30
2022-09-15T17:38:22.339Z,16.30
2022-09-15T17:40:50.030Z,16.30
2022-09-15T17:43:19.657Z,16.20
2022-09-15T17:45:47.191Z,16.20
2022-09-15T17:48:14.081Z,16.30
2022-09-15T17:50:41.945Z,16.30
2022-09-15T17:53:24.364Z,16.30
2022-09-15T17:55:51.751Z,16.20
2022-09-15T17:58:18.895Z,16.20
2022-09-15T18:00:47.062Z,16.20
2022-09-15T18:03:24.905Z,16.20
2022-09-15T18:05:52.360Z,16.20
2022-09-15T18:08:19.331Z,16.10
2022-09-15T18:10:46.354Z,16.00
2022-09-15T18:13:22.152Z,16.00
2022-09-15T18:15:50.031Z,16.00
2022-09-15T18:18:19.851Z,16.00
2022-09-15T18:20:47.287Z,15.90
2022-09-15T18:23:16.556Z,15.90
2022-09-15T18:25:44.288Z,15.90
2022-09-15T18:28:11.285Z,15.90
2022-09-15T18:30:40.768Z,15.80
2022-09-15T18:33:22.378Z,15.90
2022-09-15T18:35:51.580Z,15.80
2022-09-15T18:38:18.890Z,15.80
2022-09-15T18:40:49.157Z,15.70
2022-09-15T18:43:16.966Z,15.70
2022-09-15T18:45:44.176Z,15.60
2022-09-15T18:48:13.164Z,15.60
2022-09-15T18:50:41.391Z,15.50
2022-09-15T18:53:08.527Z,15.50
2022-09-15T18:55:35.421Z,15.40
2022-09-15T18:58:02.880Z,15.30
2022-09-15T19:00:31.520Z,15.40
2022-09-15T19:03:00.292Z,15.40
2022-09-15T19:05:28.659Z,15.30
2022-09-15T19:07:56.065Z,13.70
2022-09-15T19:10:24.479Z,15.20
2022-09-15T19:12:51.338Z,15.30
2022-09-15T19:15:18.269Z,15.30
2022-09-15T19:17:45.236Z,15.30
2022-09-15T19:20:15.065Z,15.20
2022-09-15T19:22:42.609Z,15.20
2022-09-15T19:25:11.104Z,15.20
2022-09-15T19:27:38.918Z,15.20
2022-09-15T19:30:07.375Z,15.20
2022-09-15T19:32:35.668Z,15.20
2022-09-15T19:35:02.568Z,15.20
2022-09-15T19:37:29.435Z,15.10
2022-09-15T19:39:56.430Z,15.10
2022-09-15T19:42:23.338Z,15.10
2022-09-15T19:44:50.451Z,15.10
2022-09-15T19:47:17.457Z,15.10
2022-09-15T19:49:44.410Z,15.10
2022-09-15T19:52:11.268Z,15.10
2022-09-15T19:54:38.228Z,15.10
2022-09-15T19:57:05.381Z,15.10
2022-09-15T19:59:32.316Z,15.00
2022-09-15T20:02:00.745Z,15.00
2022-09-15T20:07:13.008Z,15.00
2022-09-15T20:09:39.902Z,14.90
2022-09-15T20:12:06.982Z,14.90
2022-09-15T20:14:34.317Z,14.90
2022-09-15T20:17:01.880Z,14.90
2022-09-15T20:19:29.947Z,14.80
2022-09-15T20:21:56.789Z,14.80
2022-09-15T20:24:24.732Z,14.70
2022-09-15T20:26:53.109Z,14.70
2022-09-15T20:29:20.755Z,14.70
2022-09-15T20:31:48.522Z,14.70
2022-09-15T20:34:15.727Z,14.70
2022-09-15T20:36:43.642Z,14.70
2022-09-15T20:39:13.493Z,14.70
2022-09-15T20:41:41.842Z,14.70
2022-09-15T20:44:11.842Z,14.70
2022-09-15T20:46:38.994Z,14.70
2022-09-15T20:49:06.636Z,14.60
2022-09-15T20:51:33.946Z,14.60
2022-09-15T20:54:06.247Z,14.60
2022-09-15T20:56:35.183Z,14.60
2022-09-15T20:59:04.231Z,14.50
2022-09-15T21:01:36.876Z,14.50
2022-09-15T21:04:05.721Z,14.50
2022-09-15T21:06:32.948Z,14.40
2022-09-15T21:09:00.378Z,14.50
2022-09-15T21:11:28.871Z,14.40
2022-09-15T21:13:56.484Z,14.50
2022-09-15T21:16:26.397Z,14.50
2022-09-15T21:18:53.333Z,14.50
2022-09-15T21:21:25.958Z,14.50
2022-09-15T21:23:59.119Z,14.50
2022-09-15T21:26:26.789Z,14.50
2022-09-15T21:28:55.546Z,14.50
2022-09-15T21:31:25.597Z,14.50
2022-09-15T21:33:53.803Z,14.50
2022-09-15T21:36:23.324Z,14.50
2022-09-15T21:38:52.913Z,14.50
2022-09-15T21:41:22.377Z,14.50
2022-09-15T21:43:54.745Z,14.50
2022-09-15T21:46:24.378Z,14.50
2022-09-15T21:48:51.875Z,14.50
2022-09-15T21:51:24.741Z,14.50
2022-09-15T21:53:53.843Z,14.50
2022-09-15T21:56:21.010Z,14.50
2022-09-15T21:58:48.618Z,14.50
2022-09-15T22:01:20.270Z,14.50
2022-09-15T22:03:53.055Z,14.50
2022-09-15T22:06:22.425Z,14.50
2022-09-15T22:08:49.341Z,14.50
2022-09-15T22:11:16.209Z,14.50
2022-09-15T22:13:44.791Z,14.40
2022-09-15T22:16:14.995Z,14.50
2022-09-15T22:18:42.687Z,14.50
2022-09-15T22:21:24.469Z,14.50
2022-09-15T22:23:53.484Z,14.50
2022-09-15T22:26:26.403Z,14.40
2022-09-15T22:28:54.262Z,14.50
2022-09-15T22:31:22.253Z,14.40
2022-09-15T22:33:49.887Z,14.40
2022-09-15T22:36:29.388Z,14.40
2022-09-15T22:39:04.124Z,14.40
2022-09-15T22:41:34.281Z,14.50
2022-09-15T22:44:01.452Z,14.40
2022-09-15T22:46:28.298Z,14.40
2022-09-15T22:48:55.433Z,14.40
2022-09-15T22:51:22.368Z,14.40
2022-09-15T22:53:52.383Z,14.40
2022-09-15T22:56:23.223Z,14.30
2022-09-15T22:58:50.433Z,14.30
2022-09-15T23:01:20.013Z,14.40
2022-09-15T23:03:55.801Z,14.30
2022-09-15T23:06:23.482Z,14.30
2022-09-15T23:08:56.832Z,14.20
2022-09-15T23:11:25.067Z,14.20
2022-09-15T23:13:53.354Z,14.20
2022-09-15T23:16:21.054Z,14.20
2022-09-15T23:18:48.414Z,14.20
2022-09-15T23:21:15.283Z,14.20
2022-09-15T23:23:44.346Z,14.20
2022-09-15T23:26:12.481Z,14.20
2022-09-15T23:28:39.741Z,14.10
2022-09-15T23:31:07.983Z,14.00
2022-09-15T23:33:34.941Z,14.10
2022-09-15T23:36:03.700Z,14.00
2022-09-15T23:38:31.553Z,14.00
2022-09-15T23:40:58.395Z,14.10
2022-09-15T23:43:25.310Z,14.00
2022-09-15T23:45:53.915Z,14.00
2022-09-15T23:48:20.952Z,14.00
2022-09-15T23:50:48.274Z,14.10
2022-09-15T23:53:15.141Z,14.00
2022-09-15T23:55:41.961Z,14.00
2022-09-15T23:58:08.828Z,14.00
